FNKU

Kuito Airport

Kuito, Angola
METAR FNKU 171600Z 00000KT 6000 VCSH FEW015 OVC060 20/20 Q1017
Observed Flight Rules
Feb-17 @ 16:00 UTC (15 hours ago) Marginal Visual Flight Rules
Wind Visibility Clouds
Calm 6,003 meters
  • Few at 1,500' AGL
  • Overcast at 6,000' AGL
Temperatures Readings
Current 20°C / 68°F
Dewpoint 20°C / 68°F
Humidity 100%
Altimeter 30.03" Hg
Pressure 1017 hPa
Elevation 1699
METAR FNKU 171600Z 00000KT 6000 VCSH FEW015 OVC060 20/20 Q1017
Observed Flight Rules
Feb-17 @ 16:00 UTC
(15 hours ago)
MVFR
Wind Visibility
Calm 6,003 meters
Clouds
  • Few at 1,500' AGL
  • Overcast at 6,000' AGL
Temperature Dewpoint
20°C / 68°F 20°C / 68°F
Humidity Altimeter Pressure
100% 30.03" Hg 1017 hPa